»·PEaware :: DIHNF KSEA-KAST

DIHNF :: KSEA-KAST

FLIGHT INFORMATION

Flight Status: Arrived
Operator: Unknown
More flights by this operator :: More flights under this callsign
Pilot: Klaus A. (15485)
Aircraft: BEECH AIRCRAFT BARON
(BE58)
More flights by this aircraft type
Origin: KSEA Seattle-Tacoma Intl
United States
Destination: KAST Astoria Regl
United States
More flights between these airports :: More routes between these airports
Route: SEA7 SEA OLM V187 HEVOL
File this flight plan on PilotEdge
Remarks:
Altitude:
(Current/Filed)
10,000ft
Speed:
(Current/Filed)
170kts
Departed: 21-Feb-21 10:15 AM
Arrived: 21-Feb-21 11:10 AM
Distance/Time
Traveled:
101nm/0:54
Distance/Time
To Go:
Arrived

Flight Plot

Page will automatically refresh every two minutes.

Flight plan parsing failed; only flown route is shown


Map Options




Map Legend


Flown Route
Filed Route
Departure Airport
Arrival Airport
Navaid (VOR, NDB)
Fix

Horizontal Profiles

Position Reports

Time Latitude Longitude Heading Altitude Ground
Speed
21-Feb-21 09:47 47.439014 -122.315044 55 437ft 0kts
21-Feb-21 09:48 47.439014 -122.315044 55 437ft 0kts
21-Feb-21 09:49 47.439014 -122.315044 55 437ft 0kts
21-Feb-21 09:50 47.439014 -122.315045 55 437ft 0kts
21-Feb-21 09:51 47.439014 -122.315045 55 437ft 0kts
21-Feb-21 09:52 47.439014 -122.315045 55 437ft 0kts
21-Feb-21 09:53 47.439014 -122.315045 55 437ft 0kts
21-Feb-21 09:54 47.439015 -122.315043 55 437ft 0kts
21-Feb-21 09:55 47.439018 -122.315036 54 437ft 0kts
21-Feb-21 09:56 47.439018 -122.315036 54 437ft 0kts
21-Feb-21 09:57 47.439018 -122.315036 54 437ft 0kts
21-Feb-21 09:58 47.439018 -122.315036 54 437ft 0kts
21-Feb-21 09:59 47.439018 -122.315036 54 437ft 0kts
21-Feb-21 10:00 47.439018 -122.315036 54 437ft 0kts
21-Feb-21 10:01 47.439018 -122.315036 54 437ft 0kts
21-Feb-21 10:02 47.439018 -122.315036 54 437ft 0kts
21-Feb-21 10:03 47.439018 -122.315036 54 437ft 0kts
21-Feb-21 10:04 47.439175 -122.314713 52 437ft 9kts
21-Feb-21 10:05 47.445168 -122.313576 359 437ft 31kts
21-Feb-21 10:06 47.454815 -122.313472 359 437ft 36kts
21-Feb-21 10:07 47.463558 -122.313579 317 437ft 12kts
21-Feb-21 10:09 47.463666 -122.313868 280 437ft 0kts
21-Feb-21 10:10 47.463666 -122.313868 280 437ft 0kts
21-Feb-21 10:11 47.463666 -122.313868 280 437ft 0kts
21-Feb-21 10:12 47.463666 -122.313868 280 437ft 0kts
21-Feb-21 10:13 47.463666 -122.313868 280 437ft 0kts
21-Feb-21 10:14 47.463666 -122.316450 269 437ft 26kts
21-Feb-21 10:15 47.443484 -122.315646 177 1031ft 114kts
21-Feb-21 10:16 47.410561 -122.308424 182 1933ft 122kts
21-Feb-21 10:17 47.376445 -122.303624 187 2790ft 124kts
21-Feb-21 10:18 47.341957 -122.305670 196 3547ft 126kts
21-Feb-21 10:19 47.305381 -122.302218 181 4224ft 140kts
21-Feb-21 10:20 47.280412 -122.323571 238 4962ft 111kts
21-Feb-21 10:21 47.261466 -122.359194 239 6023ft 110kts
21-Feb-21 10:22 47.241164 -122.395963 241 7094ft 119kts
21-Feb-21 10:23 47.223022 -122.435864 243 8139ft 119kts
21-Feb-21 10:24 47.201281 -122.474483 241 8970ft 123kts
21-Feb-21 10:25 47.178870 -122.513121 244 9735ft 122kts
21-Feb-21 10:26 47.156242 -122.558732 239 9798ft 148kts
21-Feb-21 10:27 47.130075 -122.607556 239 9780ft 156kts
21-Feb-21 10:28 47.103319 -122.657388 238 9780ft 155kts
21-Feb-21 10:29 47.076527 -122.707309 238 9782ft 156kts
21-Feb-21 10:29 47.054184 -122.748858 238 9782ft 156kts
21-Feb-21 10:31 47.023481 -122.805704 240 10043ft 149kts
21-Feb-21 10:31 47.001621 -122.846380 240 10057ft 155kts
21-Feb-21 10:33 46.969905 -122.904362 233 10055ft 160kts
21-Feb-21 10:34 46.935235 -122.946615 230 10056ft 162kts
21-Feb-21 10:34 46.906376 -122.982128 230 10056ft 162kts
21-Feb-21 10:36 46.866058 -123.031612 230 10053ft 161kts
21-Feb-21 10:36 46.837277 -123.066885 230 10037ft 162kts
21-Feb-21 10:37 46.802723 -123.109146 230 10035ft 161kts
21-Feb-21 10:38 46.768084 -123.151473 230 9997ft 163kts
21-Feb-21 10:39 46.733473 -123.193649 229 9998ft 163kts
21-Feb-21 10:40 46.697377 -123.234879 210 9995ft 175kts
21-Feb-21 10:41 46.648534 -123.250571 203 9997ft 180kts
21-Feb-21 10:42 46.599904 -123.266653 204 9996ft 178kts
21-Feb-21 10:43 46.552611 -123.282771 205 10001ft 175kts
21-Feb-21 10:44 46.504131 -123.299768 204 9870ft 188kts
21-Feb-21 10:45 46.451832 -123.317647 203 9162ft 191kts
21-Feb-21 10:46 46.400341 -123.335134 203 8449ft 189kts
21-Feb-21 10:47 46.349192 -123.352583 203 7739ft 189kts
21-Feb-21 10:48 46.297975 -123.368987 203 7049ft 187kts
21-Feb-21 10:49 46.247688 -123.386011 206 6210ft 183kts
21-Feb-21 10:50 46.202068 -123.402322 205 6050ft 153kts
21-Feb-21 10:51 46.162159 -123.415811 205 6055ft 144kts
21-Feb-21 10:52 46.128476 -123.389534 94 5661ft 185kts
21-Feb-21 10:53 46.124249 -123.310624 93 4829ft 199kts
21-Feb-21 10:54 46.151171 -123.278961 304 4486ft 125kts
21-Feb-21 10:55 46.134826 -123.317043 230 4472ft 120kts
21-Feb-21 10:56 46.124832 -123.355615 268 4376ft 114kts
21-Feb-21 10:57 46.125411 -123.400072 274 4388ft 108kts
21-Feb-21 10:58 46.130038 -123.445958 276 4255ft 118kts
21-Feb-21 10:59 46.132493 -123.495186 275 4061ft 122kts
21-Feb-21 11:00 46.135835 -123.542751 273 4077ft 116kts
21-Feb-21 11:01 46.138482 -123.587924 276 3900ft 104kts
21-Feb-21 11:02 46.141344 -123.625263 272 3332ft 92kts
21-Feb-21 11:03 46.144094 -123.661115 270 2920ft 92kts
21-Feb-21 11:04 46.146501 -123.698740 268 2436ft 95kts
21-Feb-21 11:05 46.149107 -123.738370 269 1824ft 103kts
21-Feb-21 11:06 46.152130 -123.777867 270 1281ft 92kts
21-Feb-21 11:07 46.156014 -123.815881 265 802ft 99kts
21-Feb-21 11:08 46.157904 -123.857259 269 234ft 108kts
21-Feb-21 11:09 46.159510 -123.884616 280 19ft 16kts
21-Feb-21 11:10 46.158812 -123.885740 121 19ft 0kts
21-Feb-21 11:11 46.158370 -123.884705 124 19ft 13kts
21-Feb-21 11:12 46.156816 -123.881264 61 19ft 0kts
21-Feb-21 11:13 46.156816 -123.881264 61 19ft 0kts
21-Feb-21 11:14 46.156816 -123.881264 61 19ft 0kts

Navigation Log

Ident Type
Flight plan parsing failed, navigation log unavailable